sensor_id;sensor_type;location;lat;lon;timestamp;P1;durP1;ratioP1;P2;durP2;ratioP2
10511;SDS011;5304;48.604;2.096;2023-03-01T00:02:41;6.03;;;4.57;;
10511;SDS011;5304;48.604;2.096;2023-03-01T00:05:25;6.87;;;4.80;;
10511;SDS011;5304;48.604;2.096;2023-03-01T00:08:09;6.17;;;4.27;;
10511;SDS011;5304;48.604;2.096;2023-03-01T00:11:04;8.43;;;4.80;;
10511;SDS011;5304;48.604;2.096;2023-03-01T00:14:06;10.60;;;5.70;;
10511;SDS011;5304;48.604;2.096;2023-03-01T00:16:50;5.83;;;4.50;;
10511;SDS011;5304;48.604;2.096;2023-03-01T00:19:35;6.20;;;4.87;;
10511;SDS011;5304;48.604;2.096;2023-03-01T00:22:19;6.23;;;4.53;;
10511;SDS011;5304;48.604;2.096;2023-03-01T00:25:04;10.30;;;5.07;;
10511;SDS011;5304;48.604;2.096;2023-03-01T00:27:48;6.43;;;4.30;;
10511;SDS011;5304;48.604;2.096;2023-03-01T00:30:33;6.30;;;5.00;;
10511;SDS011;5304;48.604;2.096;2023-03-01T00:33:17;7.27;;;4.93;;
10511;SDS011;5304;48.604;2.096;2023-03-01T00:36:02;6.53;;;5.00;;
10511;SDS011;5304;48.604;2.096;2023-03-01T00:38:47;7.20;;;4.83;;
10511;SDS011;5304;48.604;2.096;2023-03-01T00:41:32;6.73;;;4.87;;
10511;SDS011;5304;48.604;2.096;2023-03-01T00:44:18;8.90;;;5.57;;
10511;SDS011;5304;48.604;2.096;2023-03-01T00:47:02;8.03;;;5.33;;
10511;SDS011;5304;48.604;2.096;2023-03-01T00:49:47;7.50;;;5.00;;
10511;SDS011;5304;48.604;2.096;2023-03-01T00:52:32;7.33;;;4.97;;
10511;SDS011;5304;48.604;2.096;2023-03-01T00:55:17;5.87;;;4.13;;
10511;SDS011;5304;48.604;2.096;2023-03-01T00:58:01;7.57;;;5.13;;
10511;SDS011;5304;48.604;2.096;2023-03-01T01:00:46;8.23;;;5.20;;
10511;SDS011;5304;48.604;2.096;2023-03-01T01:03:30;9.63;;;5.23;;
10511;SDS011;5304;48.604;2.096;2023-03-01T01:06:18;9.60;;;4.90;;
10511;SDS011;5304;48.604;2.096;2023-03-01T01:09:06;7.83;;;4.97;;
10511;SDS011;5304;48.604;2.096;2023-03-01T01:11:51;6.90;;;4.90;;
10511;SDS011;5304;48.604;2.096;2023-03-01T01:14:36;9.23;;;5.07;;
10511;SDS011;5304;48.604;2.096;2023-03-01T01:17:21;7.50;;;5.10;;
10511;SDS011;5304;48.604;2.096;2023-03-01T01:20:05;8.13;;;5.30;;
10511;SDS011;5304;48.604;2.096;2023-03-01T01:22:50;7.20;;;5.00;;
10511;SDS011;5304;48.604;2.096;2023-03-01T01:25:35;7.13;;;5.33;;
10511;SDS011;5304;48.604;2.096;2023-03-01T01:28:20;8.67;;;5.30;;
10511;SDS011;5304;48.604;2.096;2023-03-01T01:31:05;9.30;;;5.90;;
10511;SDS011;5304;48.604;2.096;2023-03-01T01:33:51;7.17;;;5.07;;
10511;SDS011;5304;48.604;2.096;2023-03-01T01:36:36;9.40;;;5.20;;
10511;SDS011;5304;48.604;2.096;2023-03-01T01:39:21;8.37;;;5.10;;
10511;SDS011;5304;48.604;2.096;2023-03-01T01:42:09;6.73;;;5.37;;
10511;SDS011;5304;48.604;2.096;2023-03-01T01:48:11;8.23;;;5.17;;
10511;SDS011;5304;48.604;2.096;2023-03-01T01:51:00;9.60;;;5.17;;
10511;SDS011;5304;48.604;2.096;2023-03-01T01:53:45;5.80;;;4.47;;
10511;SDS011;5304;48.604;2.096;2023-03-01T01:56:35;9.63;;;5.10;;
10511;SDS011;5304;48.604;2.096;2023-03-01T01:59:23;9.00;;;5.23;;
10511;SDS011;5304;48.604;2.096;2023-03-01T02:02:08;9.43;;;5.30;;
10511;SDS011;5304;48.604;2.096;2023-03-01T02:05:01;9.13;;;5.33;;
10511;SDS011;5304;48.604;2.096;2023-03-01T02:07:54;9.57;;;4.90;;
10511;SDS011;5304;48.604;2.096;2023-03-01T02:10:40;11.03;;;5.30;;
10511;SDS011;5304;48.604;2.096;2023-03-01T02:13:29;9.93;;;5.83;;
10511;SDS011;5304;48.604;2.096;2023-03-01T02:16:16;7.63;;;5.10;;
10511;SDS011;5304;48.604;2.096;2023-03-01T02:19:01;7.83;;;5.27;;
10511;SDS011;5304;48.604;2.096;2023-03-01T02:21:51;8.83;;;5.03;;
10511;SDS011;5304;48.604;2.096;2023-03-01T02:30:41;9.07;;;5.40;;
10511;SDS011;5304;48.604;2.096;2023-03-01T02:33:46;7.43;;;5.50;;
10511;SDS011;5304;48.604;2.096;2023-03-01T02:36:41;7.60;;;5.17;;
10511;SDS011;5304;48.604;2.096;2023-03-01T02:39:37;8.93;;;5.90;;
10511;SDS011;5304;48.604;2.096;2023-03-01T02:42:28;7.33;;;5.07;;
10511;SDS011;5304;48.604;2.096;2023-03-01T02:45:17;7.83;;;4.83;;
10511;SDS011;5304;48.604;2.096;2023-03-01T02:48:02;8.80;;;5.93;;
10511;SDS011;5304;48.604;2.096;2023-03-01T02:51:07;10.33;;;5.57;;
10511;SDS011;5304;48.604;2.096;2023-03-01T02:57:29;6.63;;;5.03;;
10511;SDS011;5304;48.604;2.096;2023-03-01T03:00:24;9.57;;;5.97;;
10511;SDS011;5304;48.604;2.096;2023-03-01T03:03:14;11.40;;;5.97;;
10511;SDS011;5304;48.604;2.096;2023-03-01T03:06:00;8.33;;;5.60;;
10511;SDS011;5304;48.604;2.096;2023-03-01T03:08:44;10.23;;;6.10;;
10511;SDS011;5304;48.604;2.096;2023-03-01T03:11:29;9.13;;;5.80;;
10511;SDS011;5304;48.604;2.096;2023-03-01T03:14:14;9.83;;;6.00;;
10511;SDS011;5304;48.604;2.096;2023-03-01T03:17:00;9.43;;;5.17;;
10511;SDS011;5304;48.604;2.096;2023-03-01T03:19:44;10.37;;;6.17;;
10511;SDS011;5304;48.604;2.096;2023-03-01T03:22:28;10.80;;;5.90;;
10511;SDS011;5304;48.604;2.096;2023-03-01T03:25:13;9.20;;;5.80;;
10511;SDS011;5304;48.604;2.096;2023-03-01T03:27:57;9.37;;;5.97;;
10511;SDS011;5304;48.604;2.096;2023-03-01T03:30:42;9.03;;;6.03;;
10511;SDS011;5304;48.604;2.096;2023-03-01T03:33:30;11.30;;;6.10;;
10511;SDS011;5304;48.604;2.096;2023-03-01T03:36:19;8.67;;;4.97;;
10511;SDS011;5304;48.604;2.096;2023-03-01T03:39:06;11.30;;;6.20;;
10511;SDS011;5304;48.604;2.096;2023-03-01T03:41:51;10.10;;;6.33;;
10511;SDS011;5304;48.604;2.096;2023-03-01T03:44:36;8.83;;;5.53;;
10511;SDS011;5304;48.604;2.096;2023-03-01T03:47:21;8.80;;;5.73;;
10511;SDS011;5304;48.604;2.096;2023-03-01T03:50:05;10.90;;;6.60;;
10511;SDS011;5304;48.604;2.096;2023-03-01T03:52:50;10.47;;;5.63;;
10511;SDS011;5304;48.604;2.096;2023-03-01T03:55:34;9.10;;;5.77;;
10511;SDS011;5304;48.604;2.096;2023-03-01T03:58:23;14.40;;;6.70;;
10511;SDS011;5304;48.604;2.096;2023-03-01T04:01:07;11.77;;;6.40;;
10511;SDS011;5304;48.604;2.096;2023-03-01T04:03:52;11.97;;;6.00;;
10511;SDS011;5304;48.604;2.096;2023-03-01T04:06:38;14.70;;;7.17;;
10511;SDS011;5304;48.604;2.096;2023-03-01T04:09:22;12.60;;;6.83;;
10511;SDS011;5304;48.604;2.096;2023-03-01T04:12:07;8.93;;;6.10;;
10511;SDS011;5304;48.604;2.096;2023-03-01T04:14:51;13.60;;;6.20;;
10511;SDS011;5304;48.604;2.096;2023-03-01T04:17:36;9.93;;;6.93;;
10511;SDS011;5304;48.604;2.096;2023-03-01T04:20:24;9.43;;;6.47;;
10511;SDS011;5304;48.604;2.096;2023-03-01T04:23:12;11.17;;;6.17;;
10511;SDS011;5304;48.604;2.096;2023-03-01T04:25:59;9.73;;;6.13;;
10511;SDS011;5304;48.604;2.096;2023-03-01T04:28:44;10.20;;;6.23;;
10511;SDS011;5304;48.604;2.096;2023-03-01T04:31:31;11.73;;;7.00;;
10511;SDS011;5304;48.604;2.096;2023-03-01T04:34:16;10.70;;;7.27;;
10511;SDS011;5304;48.604;2.096;2023-03-01T04:37:00;12.20;;;6.70;;
10511;SDS011;5304;48.604;2.096;2023-03-01T04:39:45;8.80;;;6.00;;
10511;SDS011;5304;48.604;2.096;2023-03-01T04:42:30;10.00;;;5.87;;
10511;SDS011;5304;48.604;2.096;2023-03-01T04:45:14;12.20;;;6.50;;
10511;SDS011;5304;48.604;2.096;2023-03-01T04:47:58;10.80;;;6.43;;
10511;SDS011;5304;48.604;2.096;2023-03-01T04:50:43;11.00;;;6.57;;
10511;SDS011;5304;48.604;2.096;2023-03-01T04:53:27;9.80;;;6.23;;
10511;SDS011;5304;48.604;2.096;2023-03-01T04:56:13;10.10;;;6.60;;
10511;SDS011;5304;48.604;2.096;2023-03-01T04:58:57;11.57;;;6.20;;
10511;SDS011;5304;48.604;2.096;2023-03-01T05:01:42;13.20;;;7.20;;
10511;SDS011;5304;48.604;2.096;2023-03-01T05:04:26;12.37;;;7.20;;
10511;SDS011;5304;48.604;2.096;2023-03-01T05:07:11;11.63;;;7.03;;
10511;SDS011;5304;48.604;2.096;2023-03-01T05:09:56;11.40;;;7.37;;
10511;SDS011;5304;48.604;2.096;2023-03-01T05:12:40;11.30;;;7.13;;
10511;SDS011;5304;48.604;2.096;2023-03-01T05:15:30;12.83;;;7.43;;
10511;SDS011;5304;48.604;2.096;2023-03-01T05:18:16;9.10;;;5.83;;
10511;SDS011;5304;48.604;2.096;2023-03-01T05:21:02;10.47;;;7.10;;
10511;SDS011;5304;48.604;2.096;2023-03-01T05:23:48;10.70;;;6.40;;
10511;SDS011;5304;48.604;2.096;2023-03-01T05:26:33;11.90;;;6.70;;
10511;SDS011;5304;48.604;2.096;2023-03-01T05:29:18;14.63;;;8.00;;
10511;SDS011;5304;48.604;2.096;2023-03-01T05:32:08;14.17;;;7.20;;
10511;SDS011;5304;48.604;2.096;2023-03-01T05:34:53;11.77;;;6.50;;
10511;SDS011;5304;48.604;2.096;2023-03-01T05:37:45;12.07;;;7.43;;
10511;SDS011;5304;48.604;2.096;2023-03-01T05:40:32;11.17;;;6.67;;
10511;SDS011;5304;48.604;2.096;2023-03-01T05:43:17;13.33;;;7.27;;
10511;SDS011;5304;48.604;2.096;2023-03-01T05:46:02;11.20;;;7.03;;
10511;SDS011;5304;48.604;2.096;2023-03-01T05:48:47;12.03;;;7.33;;
10511;SDS011;5304;48.604;2.096;2023-03-01T05:51:31;8.50;;;5.70;;
10511;SDS011;5304;48.604;2.096;2023-03-01T05:54:17;11.43;;;6.23;;
10511;SDS011;5304;48.604;2.096;2023-03-01T05:57:03;10.37;;;6.73;;
10511;SDS011;5304;48.604;2.096;2023-03-01T05:59:47;10.23;;;6.57;;
10511;SDS011;5304;48.604;2.096;2023-03-01T06:02:31;12.87;;;7.77;;
10511;SDS011;5304;48.604;2.096;2023-03-01T06:05:16;8.43;;;5.87;;
10511;SDS011;5304;48.604;2.096;2023-03-01T06:08:01;13.07;;;7.40;;
10511;SDS011;5304;48.604;2.096;2023-03-01T06:10:46;10.40;;;6.93;;
10511;SDS011;5304;48.604;2.096;2023-03-01T06:13:32;12.33;;;7.37;;
10511;SDS011;5304;48.604;2.096;2023-03-01T06:16:16;10.70;;;7.13;;
10511;SDS011;5304;48.604;2.096;2023-03-01T06:19:00;9.17;;;5.83;;
10511;SDS011;5304;48.604;2.096;2023-03-01T06:21:45;11.50;;;6.63;;
10511;SDS011;5304;48.604;2.096;2023-03-01T06:24:29;9.97;;;6.97;;
10511;SDS011;5304;48.604;2.096;2023-03-01T06:27:14;13.97;;;7.63;;
10511;SDS011;5304;48.604;2.096;2023-03-01T06:29:58;12.73;;;6.83;;
10511;SDS011;5304;48.604;2.096;2023-03-01T06:32:43;9.83;;;6.50;;
10511;SDS011;5304;48.604;2.096;2023-03-01T06:35:30;12.83;;;7.40;;
10511;SDS011;5304;48.604;2.096;2023-03-01T06:38:15;9.63;;;7.03;;
10511;SDS011;5304;48.604;2.096;2023-03-01T06:41:01;12.10;;;7.10;;
10511;SDS011;5304;48.604;2.096;2023-03-01T06:43:45;13.37;;;7.73;;
10511;SDS011;5304;48.604;2.096;2023-03-01T06:46:30;11.90;;;7.97;;
10511;SDS011;5304;48.604;2.096;2023-03-01T06:49:15;11.77;;;7.43;;
10511;SDS011;5304;48.604;2.096;2023-03-01T06:52:01;14.37;;;7.27;;
10511;SDS011;5304;48.604;2.096;2023-03-01T06:54:46;12.33;;;7.50;;
10511;SDS011;5304;48.604;2.096;2023-03-01T06:57:31;12.43;;;8.10;;
10511;SDS011;5304;48.604;2.096;2023-03-01T07:00:16;14.50;;;8.00;;
10511;SDS011;5304;48.604;2.096;2023-03-01T07:03:01;11.27;;;6.53;;
10511;SDS011;5304;48.604;2.096;2023-03-01T07:05:47;11.93;;;7.20;;
10511;SDS011;5304;48.604;2.096;2023-03-01T07:08:33;13.70;;;7.53;;
10511;SDS011;5304;48.604;2.096;2023-03-01T07:11:17;11.53;;;7.73;;
10511;SDS011;5304;48.604;2.096;2023-03-01T07:14:02;12.40;;;7.57;;
10511;SDS011;5304;48.604;2.096;2023-03-01T07:16:46;12.60;;;7.47;;
10511;SDS011;5304;48.604;2.096;2023-03-01T07:19:31;13.77;;;7.73;;
10511;SDS011;5304;48.604;2.096;2023-03-01T07:22:15;10.10;;;7.40;;
10511;SDS011;5304;48.604;2.096;2023-03-01T07:25:00;17.83;;;8.33;;
10511;SDS011;5304;48.604;2.096;2023-03-01T07:27:48;12.50;;;8.27;;
10511;SDS011;5304;48.604;2.096;2023-03-01T07:30:34;15.97;;;9.00;;
10511;SDS011;5304;48.604;2.096;2023-03-01T07:33:19;13.20;;;8.33;;
10511;SDS011;5304;48.604;2.096;2023-03-01T07:36:04;12.87;;;7.67;;
10511;SDS011;5304;48.604;2.096;2023-03-01T07:38:49;13.93;;;7.83;;
10511;SDS011;5304;48.604;2.096;2023-03-01T07:41:34;13.40;;;8.53;;
10511;SDS011;5304;48.604;2.096;2023-03-01T07:44:18;11.20;;;8.43;;
10511;SDS011;5304;48.604;2.096;2023-03-01T07:47:03;15.87;;;9.87;;
10511;SDS011;5304;48.604;2.096;2023-03-01T07:49:49;17.03;;;9.43;;
10511;SDS011;5304;48.604;2.096;2023-03-01T07:52:33;12.73;;;8.17;;
10511;SDS011;5304;48.604;2.096;2023-03-01T07:55:17;17.57;;;8.93;;
10511;SDS011;5304;48.604;2.096;2023-03-01T07:58:03;15.50;;;9.20;;
10511;SDS011;5304;48.604;2.096;2023-03-01T08:00:48;14.53;;;9.43;;
10511;SDS011;5304;48.604;2.096;2023-03-01T08:03:32;15.40;;;8.77;;
10511;SDS011;5304;48.604;2.096;2023-03-01T08:06:17;15.83;;;10.13;;
10511;SDS011;5304;48.604;2.096;2023-03-01T08:09:02;16.43;;;10.27;;
10511;SDS011;5304;48.604;2.096;2023-03-01T08:11:46;13.57;;;9.37;;
10511;SDS011;5304;48.604;2.096;2023-03-01T08:14:31;13.83;;;9.30;;
10511;SDS011;5304;48.604;2.096;2023-03-01T08:17:16;17.03;;;9.73;;
10511;SDS011;5304;48.604;2.096;2023-03-01T08:20:01;15.33;;;9.00;;
10511;SDS011;5304;48.604;2.096;2023-03-01T08:22:47;16.50;;;10.53;;
10511;SDS011;5304;48.604;2.096;2023-03-01T08:25:32;14.70;;;9.37;;
10511;SDS011;5304;48.604;2.096;2023-03-01T08:28:16;14.37;;;9.50;;
10511;SDS011;5304;48.604;2.096;2023-03-01T08:31:00;13.70;;;9.70;;
10511;SDS011;5304;48.604;2.096;2023-03-01T08:33:46;16.80;;;10.93;;
10511;SDS011;5304;48.604;2.096;2023-03-01T08:36:38;15.73;;;8.93;;
10511;SDS011;5304;48.604;2.096;2023-03-01T08:39:24;16.70;;;10.77;;
10511;SDS011;5304;48.604;2.096;2023-03-01T08:42:09;14.83;;;10.80;;
10511;SDS011;5304;48.604;2.096;2023-03-01T08:44:53;17.03;;;10.60;;
10511;SDS011;5304;48.604;2.096;2023-03-01T08:47:38;15.23;;;10.67;;
10511;SDS011;5304;48.604;2.096;2023-03-01T08:50:22;14.70;;;10.83;;
10511;SDS011;5304;48.604;2.096;2023-03-01T08:53:08;15.20;;;11.03;;
10511;SDS011;5304;48.604;2.096;2023-03-01T08:55:52;14.90;;;11.10;;
10511;SDS011;5304;48.604;2.096;2023-03-01T08:58:36;15.73;;;11.50;;
10511;SDS011;5304;48.604;2.096;2023-03-01T09:01:21;14.63;;;11.43;;
10511;SDS011;5304;48.604;2.096;2023-03-01T09:04:06;16.13;;;12.40;;
10511;SDS011;5304;48.604;2.096;2023-03-01T09:06:50;16.23;;;11.97;;
10511;SDS011;5304;48.604;2.096;2023-03-01T09:09:34;13.83;;;12.33;;
10511;SDS011;5304;48.604;2.096;2023-03-01T09:12:19;17.83;;;11.37;;
10511;SDS011;5304;48.604;2.096;2023-03-01T09:15:03;14.20;;;11.77;;
10511;SDS011;5304;48.604;2.096;2023-03-01T09:17:48;18.33;;;11.60;;
10511;SDS011;5304;48.604;2.096;2023-03-01T09:20:32;16.23;;;11.70;;
10511;SDS011;5304;48.604;2.096;2023-03-01T09:23:17;15.17;;;11.87;;
10511;SDS011;5304;48.604;2.096;2023-03-01T09:26:02;15.30;;;11.60;;
10511;SDS011;5304;48.604;2.096;2023-03-01T09:28:47;15.17;;;11.27;;
10511;SDS011;5304;48.604;2.096;2023-03-01T09:31:35;13.93;;;10.53;;
10511;SDS011;5304;48.604;2.096;2023-03-01T09:34:20;16.13;;;11.27;;
10511;SDS011;5304;48.604;2.096;2023-03-01T09:37:07;14.63;;;10.30;;
10511;SDS011;5304;48.604;2.096;2023-03-01T09:39:51;20.70;;;11.80;;
10511;SDS011;5304;48.604;2.096;2023-03-01T09:42:35;10.43;;;7.97;;
10511;SDS011;5304;48.604;2.096;2023-03-01T09:45:40;13.67;;;9.93;;
10511;SDS011;5304;48.604;2.096;2023-03-01T09:48:37;13.57;;;9.90;;
10511;SDS011;5304;48.604;2.096;2023-03-01T09:51:34;15.73;;;10.37;;
10511;SDS011;5304;48.604;2.096;2023-03-01T09:54:19;13.97;;;9.60;;
10511;SDS011;5304;48.604;2.096;2023-03-01T09:57:15;11.80;;;9.03;;
10511;SDS011;5304;48.604;2.096;2023-03-01T10:03:26;13.03;;;10.63;;
10511;SDS011;5304;48.604;2.096;2023-03-01T10:06:19;16.53;;;10.87;;
10511;SDS011;5304;48.604;2.096;2023-03-01T10:09:10;14.37;;;10.13;;
10511;SDS011;5304;48.604;2.096;2023-03-01T10:12:01;15.47;;;10.17;;
10511;SDS011;5304;48.604;2.096;2023-03-01T10:14:51;12.90;;;9.60;;
10511;SDS011;5304;48.604;2.096;2023-03-01T10:17:56;13.03;;;10.13;;
10511;SDS011;5304;48.604;2.096;2023-03-01T10:20:54;16.27;;;10.67;;
10511;SDS011;5304;48.604;2.096;2023-03-01T10:23:44;13.47;;;8.97;;
10511;SDS011;5304;48.604;2.096;2023-03-01T10:26:33;14.40;;;9.53;;
10511;SDS011;5304;48.604;2.096;2023-03-01T10:29:30;21.17;;;9.80;;
10511;SDS011;5304;48.604;2.096;2023-03-01T10:32:21;14.20;;;9.93;;
10511;SDS011;5304;48.604;2.096;2023-03-01T10:35:19;14.80;;;10.73;;
10511;SDS011;5304;48.604;2.096;2023-03-01T10:38:06;18.97;;;11.07;;
10511;SDS011;5304;48.604;2.096;2023-03-01T10:40:54;14.83;;;10.07;;
10511;SDS011;5304;48.604;2.096;2023-03-01T10:43:49;16.40;;;10.27;;
10511;SDS011;5304;48.604;2.096;2023-03-01T10:46:36;17.73;;;10.93;;
10511;SDS011;5304;48.604;2.096;2023-03-01T10:49:22;16.13;;;10.80;;
10511;SDS011;5304;48.604;2.096;2023-03-01T10:52:18;14.33;;;10.27;;
10511;SDS011;5304;48.604;2.096;2023-03-01T10:58:16;17.23;;;10.87;;
10511;SDS011;5304;48.604;2.096;2023-03-01T11:01:04;17.07;;;10.57;;
10511;SDS011;5304;48.604;2.096;2023-03-01T11:07:07;17.60;;;11.63;;
10511;SDS011;5304;48.604;2.096;2023-03-01T11:09:51;18.27;;;11.63;;
10511;SDS011;5304;48.604;2.096;2023-03-01T11:12:35;17.00;;;11.63;;
10511;SDS011;5304;48.604;2.096;2023-03-01T11:15:27;15.23;;;10.97;;
10511;SDS011;5304;48.604;2.096;2023-03-01T11:18:22;17.40;;;11.20;;
10511;SDS011;5304;48.604;2.096;2023-03-01T11:21:06;16.03;;;11.83;;
10511;SDS011;5304;48.604;2.096;2023-03-01T11:23:52;15.20;;;11.10;;
10511;SDS011;5304;48.604;2.096;2023-03-01T11:26:38;19.87;;;12.10;;
10511;SDS011;5304;48.604;2.096;2023-03-01T11:29:30;15.43;;;11.10;;
10511;SDS011;5304;48.604;2.096;2023-03-01T11:32:20;16.90;;;10.40;;
10511;SDS011;5304;48.604;2.096;2023-03-01T11:35:17;18.10;;;10.37;;
10511;SDS011;5304;48.604;2.096;2023-03-01T11:41:17;13.80;;;10.33;;
10511;SDS011;5304;48.604;2.096;2023-03-01T11:44:14;16.63;;;11.70;;
10511;SDS011;5304;48.604;2.096;2023-03-01T12:15:11;16.43;;;11.73;;
10511;SDS011;5304;48.604;2.096;2023-03-01T12:31:00;16.23;;;11.20;;
10511;SDS011;5304;48.604;2.096;2023-03-01T12:37:21;15.50;;;11.57;;
10511;SDS011;5304;48.604;2.096;2023-03-01T12:52:42;18.40;;;12.43;;
10511;SDS011;5304;48.604;2.096;2023-03-01T12:55:38;19.90;;;11.47;;
10511;SDS011;5304;48.604;2.096;2023-03-01T13:04:12;19.80;;;13.40;;
10511;SDS011;5304;48.604;2.096;2023-03-01T13:13:24;19.13;;;12.33;;
10511;SDS011;5304;48.604;2.096;2023-03-01T13:16:38;17.47;;;13.00;;
10511;SDS011;5304;48.604;2.096;2023-03-01T13:19:25;20.43;;;12.87;;
10511;SDS011;5304;48.604;2.096;2023-03-01T13:22:25;23.53;;;15.07;;
10511;SDS011;5304;48.604;2.096;2023-03-01T13:25:14;18.63;;;12.57;;
10511;SDS011;5304;48.604;2.096;2023-03-01T13:34:06;21.03;;;14.27;;
10511;SDS011;5304;48.604;2.096;2023-03-01T13:37:28;21.23;;;14.37;;
10511;SDS011;5304;48.604;2.096;2023-03-01T13:46:22;22.43;;;15.37;;
10511;SDS011;5304;48.604;2.096;2023-03-01T13:49:14;18.13;;;12.40;;
10511;SDS011;5304;48.604;2.096;2023-03-01T13:52:02;23.80;;;16.10;;
10511;SDS011;5304;48.604;2.096;2023-03-01T13:54:46;24.30;;;15.43;;
10511;SDS011;5304;48.604;2.096;2023-03-01T13:57:33;32.73;;;18.27;;
10511;SDS011;5304;48.604;2.096;2023-03-01T14:00:25;20.13;;;11.97;;
10511;SDS011;5304;48.604;2.096;2023-03-01T14:03:17;28.43;;;14.67;;
10511;SDS011;5304;48.604;2.096;2023-03-01T14:06:07;20.73;;;12.70;;
10511;SDS011;5304;48.604;2.096;2023-03-01T14:09:09;18.37;;;11.80;;
10511;SDS011;5304;48.604;2.096;2023-03-01T14:12:37;24.27;;;15.10;;
10511;SDS011;5304;48.604;2.096;2023-03-01T14:15:35;18.67;;;12.53;;
10511;SDS011;5304;48.604;2.096;2023-03-01T14:21:27;20.43;;;12.80;;
10511;SDS011;5304;48.604;2.096;2023-03-01T14:24:20;20.00;;;12.87;;
10511;SDS011;5304;48.604;2.096;2023-03-01T14:27:10;18.27;;;13.07;;
10511;SDS011;5304;48.604;2.096;2023-03-01T14:29:57;21.00;;;12.23;;
10511;SDS011;5304;48.604;2.096;2023-03-01T14:33:00;22.07;;;12.50;;
10511;SDS011;5304;48.604;2.096;2023-03-01T14:36:10;17.30;;;11.67;;
10511;SDS011;5304;48.604;2.096;2023-03-01T14:38:56;19.73;;;13.87;;
10511;SDS011;5304;48.604;2.096;2023-03-01T14:41:48;17.47;;;12.40;;
10511;SDS011;5304;48.604;2.096;2023-03-01T14:44:35;20.00;;;15.20;;
10511;SDS011;5304;48.604;2.096;2023-03-01T14:47:34;20.80;;;13.10;;
10511;SDS011;5304;48.604;2.096;2023-03-01T14:50:24;17.87;;;12.63;;
10511;SDS011;5304;48.604;2.096;2023-03-01T14:53:16;16.93;;;12.20;;
10511;SDS011;5304;48.604;2.096;2023-03-01T14:56:02;17.87;;;12.57;;
10511;SDS011;5304;48.604;2.096;2023-03-01T14:58:46;18.97;;;11.90;;
10511;SDS011;5304;48.604;2.096;2023-03-01T15:01:35;18.10;;;12.80;;
10511;SDS011;5304;48.604;2.096;2023-03-01T15:04:19;19.70;;;13.57;;
10511;SDS011;5304;48.604;2.096;2023-03-01T15:07:06;22.47;;;12.27;;
10511;SDS011;5304;48.604;2.096;2023-03-01T15:09:56;17.33;;;11.97;;
10511;SDS011;5304;48.604;2.096;2023-03-01T15:12:41;16.40;;;12.27;;
10511;SDS011;5304;48.604;2.096;2023-03-01T15:15:33;19.47;;;13.47;;
10511;SDS011;5304;48.604;2.096;2023-03-01T15:18:20;18.33;;;12.53;;
10511;SDS011;5304;48.604;2.096;2023-03-01T15:21:17;16.77;;;11.93;;
10511;SDS011;5304;48.604;2.096;2023-03-01T15:26:59;17.00;;;11.90;;
10511;SDS011;5304;48.604;2.096;2023-03-01T15:29:50;28.30;;;18.40;;
10511;SDS011;5304;48.604;2.096;2023-03-01T15:32:39;20.53;;;13.97;;
10511;SDS011;5304;48.604;2.096;2023-03-01T15:35:42;16.77;;;12.10;;
10511;SDS011;5304;48.604;2.096;2023-03-01T15:41:25;17.53;;;12.57;;
10511;SDS011;5304;48.604;2.096;2023-03-01T15:44:23;17.73;;;12.93;;
10511;SDS011;5304;48.604;2.096;2023-03-01T15:47:23;18.83;;;11.80;;
10511;SDS011;5304;48.604;2.096;2023-03-01T15:50:23;18.90;;;12.43;;
10511;SDS011;5304;48.604;2.096;2023-03-01T15:53:12;17.93;;;12.60;;
10511;SDS011;5304;48.604;2.096;2023-03-01T15:55:58;18.37;;;14.07;;
10511;SDS011;5304;48.604;2.096;2023-03-01T15:58:43;19.80;;;15.30;;
10511;SDS011;5304;48.604;2.096;2023-03-01T16:01:30;16.47;;;12.97;;
10511;SDS011;5304;48.604;2.096;2023-03-01T16:04:18;20.57;;;13.83;;
10511;SDS011;5304;48.604;2.096;2023-03-01T16:07:07;18.40;;;13.43;;
10511;SDS011;5304;48.604;2.096;2023-03-01T16:09:53;21.00;;;16.83;;
10511;SDS011;5304;48.604;2.096;2023-03-01T16:12:37;20.57;;;15.00;;
10511;SDS011;5304;48.604;2.096;2023-03-01T16:18:09;19.23;;;12.87;;
10511;SDS011;5304;48.604;2.096;2023-03-01T16:20:55;21.87;;;13.13;;
10511;SDS011;5304;48.604;2.096;2023-03-01T16:23:39;19.70;;;13.23;;
10511;SDS011;5304;48.604;2.096;2023-03-01T16:26:24;20.30;;;14.00;;
10511;SDS011;5304;48.604;2.096;2023-03-01T16:29:09;19.13;;;13.37;;
10511;SDS011;5304;48.604;2.096;2023-03-01T16:31:53;23.53;;;14.77;;
10511;SDS011;5304;48.604;2.096;2023-03-01T16:34:38;22.13;;;13.23;;
10511;SDS011;5304;48.604;2.096;2023-03-01T16:37:22;19.43;;;13.23;;
10511;SDS011;5304;48.604;2.096;2023-03-01T16:40:14;21.23;;;14.60;;
10511;SDS011;5304;48.604;2.096;2023-03-01T16:43:08;19.77;;;13.67;;
10511;SDS011;5304;48.604;2.096;2023-03-01T16:45:53;25.10;;;14.97;;
10511;SDS011;5304;48.604;2.096;2023-03-01T16:48:38;20.23;;;13.00;;
10511;SDS011;5304;48.604;2.096;2023-03-01T16:51:23;20.10;;;13.03;;
10511;SDS011;5304;48.604;2.096;2023-03-01T16:54:08;24.97;;;16.10;;
10511;SDS011;5304;48.604;2.096;2023-03-01T16:56:54;20.70;;;15.20;;
10511;SDS011;5304;48.604;2.096;2023-03-01T16:59:39;26.43;;;17.30;;
10511;SDS011;5304;48.604;2.096;2023-03-01T17:02:24;22.37;;;14.33;;
10511;SDS011;5304;48.604;2.096;2023-03-01T17:05:09;19.87;;;13.67;;
10511;SDS011;5304;48.604;2.096;2023-03-01T17:07:55;21.37;;;13.13;;
10511;SDS011;5304;48.604;2.096;2023-03-01T17:10:41;19.30;;;14.17;;
10511;SDS011;5304;48.604;2.096;2023-03-01T17:13:27;23.07;;;13.37;;
10511;SDS011;5304;48.604;2.096;2023-03-01T17:16:12;18.17;;;12.90;;
10511;SDS011;5304;48.604;2.096;2023-03-01T17:18:58;19.03;;;11.27;;
10511;SDS011;5304;48.604;2.096;2023-03-01T17:21:43;19.50;;;12.43;;
10511;SDS011;5304;48.604;2.096;2023-03-01T17:24:31;18.80;;;12.37;;
10511;SDS011;5304;48.604;2.096;2023-03-01T17:27:16;20.80;;;13.97;;
10511;SDS011;5304;48.604;2.096;2023-03-01T17:30:02;18.63;;;11.37;;
10511;SDS011;5304;48.604;2.096;2023-03-01T17:32:48;17.80;;;11.10;;
10511;SDS011;5304;48.604;2.096;2023-03-01T17:35:33;14.83;;;10.60;;
10511;SDS011;5304;48.604;2.096;2023-03-01T17:38:20;22.10;;;12.20;;
10511;SDS011;5304;48.604;2.096;2023-03-01T17:41:04;21.33;;;13.47;;
10511;SDS011;5304;48.604;2.096;2023-03-01T17:43:49;20.87;;;12.10;;
10511;SDS011;5304;48.604;2.096;2023-03-01T17:46:34;18.97;;;12.80;;
10511;SDS011;5304;48.604;2.096;2023-03-01T17:49:18;18.13;;;12.23;;
10511;SDS011;5304;48.604;2.096;2023-03-01T17:52:03;18.63;;;12.77;;
10511;SDS011;5304;48.604;2.096;2023-03-01T17:54:48;24.07;;;14.27;;
10511;SDS011;5304;48.604;2.096;2023-03-01T17:57:33;21.33;;;12.57;;
10511;SDS011;5304;48.604;2.096;2023-03-01T18:00:17;20.80;;;13.50;;
10511;SDS011;5304;48.604;2.096;2023-03-01T18:03:03;31.53;;;19.40;;
10511;SDS011;5304;48.604;2.096;2023-03-01T18:05:48;29.73;;;19.20;;
10511;SDS011;5304;48.604;2.096;2023-03-01T18:08:33;23.23;;;15.23;;
10511;SDS011;5304;48.604;2.096;2023-03-01T18:11:17;27.63;;;18.63;;
10511;SDS011;5304;48.604;2.096;2023-03-01T18:14:02;22.43;;;13.87;;
10511;SDS011;5304;48.604;2.096;2023-03-01T18:16:47;22.30;;;14.57;;
10511;SDS011;5304;48.604;2.096;2023-03-01T18:19:32;20.40;;;12.30;;
10511;SDS011;5304;48.604;2.096;2023-03-01T18:22:16;19.00;;;12.67;;
10511;SDS011;5304;48.604;2.096;2023-03-01T18:25:00;18.20;;;11.60;;
10511;SDS011;5304;48.604;2.096;2023-03-01T18:27:45;17.00;;;11.57;;
10511;SDS011;5304;48.604;2.096;2023-03-01T18:30:29;18.13;;;11.37;;
10511;SDS011;5304;48.604;2.096;2023-03-01T18:33:15;16.83;;;11.30;;
10511;SDS011;5304;48.604;2.096;2023-03-01T18:35:59;18.33;;;11.90;;
10511;SDS011;5304;48.604;2.096;2023-03-01T18:38:44;16.97;;;11.43;;
10511;SDS011;5304;48.604;2.096;2023-03-01T18:41:30;14.00;;;9.63;;
10511;SDS011;5304;48.604;2.096;2023-03-01T18:44:15;24.63;;;10.67;;